»·PEaware :: DAL2546 KSLC-KSAN

DAL2546 :: KSLC-KSAN

FLIGHT INFORMATION

Flight Status: Arrived
Operator:
Delta Air Lines
More flights by this operator :: More flights under this callsign
Pilot: Patricio R. (14780)
Aircraft: AIRBUS A320
(A320)
More flights by this aircraft type
Origin: KSLC Salt Lake City Intl
United States
Destination: KSAN San Diego Intl-Lindbergh
United States
More flights between these airports :: More routes between these airports
Route: +ARCHZ1 MLF LVELL LUCKI1
File this flight plan on PilotEdge
Remarks: PBN / A1B1C1D1O1S1 DOF / 180816 REG / FFA320 EET / KZLA0032 OPR / DAL PER / C RMK / TCAS SIMBRIEF
Altitude:
(Current/Filed)
36,000ft
Speed:
(Current/Filed)
442kts
Departed: 15-Aug-18 05:14 PM
Arrived: 15-Aug-18 07:02 PM
Distance/Time
Traveled:
545nm/1:48
Distance/Time
To Go:
Arrived

Flight Plot

Page will automatically refresh every two minutes.

Flight plan parsing failed; only flown route is shown


Map Options




Map Legend


Flown Route
Filed Route
Departure Airport
Arrival Airport
Navaid (VOR, NDB)
Fix

Horizontal Profiles

Position Reports

Time Latitude Longitude Heading Altitude Ground
Speed
15-Aug-18 16:52 40.788508 -111.980775 283 4236ft 0kts
15-Aug-18 16:53 40.788508 -111.980775 283 4236ft 0kts
15-Aug-18 16:54 40.788508 -111.980775 283 4236ft 0kts
15-Aug-18 16:55 40.788508 -111.980775 283 4236ft 0kts
15-Aug-18 16:56 40.788508 -111.980775 283 4236ft 0kts
15-Aug-18 16:57 40.788508 -111.980775 283 4236ft 0kts
15-Aug-18 16:58 40.788508 -111.980775 283 4236ft 0kts
15-Aug-18 16:59 40.788508 -111.980775 283 4236ft 0kts
15-Aug-18 17:00 40.788508 -111.980775 283 4236ft 0kts
15-Aug-18 17:01 40.788508 -111.980775 283 4236ft 0kts
15-Aug-18 17:02 40.788508 -111.980775 283 4236ft 0kts
15-Aug-18 17:03 40.788474 -111.980578 282 4236ft 2kts
15-Aug-18 17:04 40.788141 -111.980036 13 4236ft 1kts
15-Aug-18 17:05 40.788059 -111.980076 19 4236ft 0kts
15-Aug-18 17:06 40.789082 -111.979872 354 4236ft 7kts
15-Aug-18 17:07 40.790210 -111.978725 87 4236ft 0kts
15-Aug-18 17:08 40.790212 -111.978645 87 4236ft 0kts
15-Aug-18 17:09 40.790212 -111.978633 87 4236ft 1kts
15-Aug-18 17:10 40.790140 -111.977097 139 4236ft 0kts
15-Aug-18 17:11 40.786715 -111.976725 175 4236ft 16kts
15-Aug-18 17:12 40.784140 -111.976404 175 4236ft 19kts
15-Aug-18 17:13 40.779398 -111.975761 161 4236ft 19kts
15-Aug-18 17:14 40.774828 -111.974832 167 4236ft 8kts
15-Aug-18 17:15 40.780936 -111.973859 354 4236ft 106kts
15-Aug-18 17:16 40.820323 -111.992867 284 6337ft 175kts
15-Aug-18 17:17 40.822793 -112.070788 272 8526ft 253kts
15-Aug-18 17:18 40.823678 -112.167883 262 11806ft 280kts
15-Aug-18 17:19 40.770331 -112.255281 220 13721ft 346kts
15-Aug-18 17:20 40.677674 -112.289086 189 16770ft 357kts
15-Aug-18 17:21 40.578996 -112.308899 189 19436ft 365kts
15-Aug-18 17:22 40.480181 -112.346384 197 21691ft 377kts
15-Aug-18 17:23 40.380276 -112.387154 198 23679ft 388kts
15-Aug-18 17:24 40.275957 -112.429618 198 25517ft 398kts
15-Aug-18 17:25 40.171563 -112.475539 207 27181ft 406kts
15-Aug-18 17:26 40.071969 -112.545542 209 28662ft 415kts
15-Aug-18 17:27 39.971243 -112.616211 209 29988ft 423kts
15-Aug-18 17:28 39.867374 -112.688863 208 31243ft 430kts
15-Aug-18 17:29 39.763938 -112.760952 209 32680ft 428kts
15-Aug-18 17:30 39.657797 -112.822069 192 34124ft 429kts
15-Aug-18 17:31 39.539961 -112.840126 189 35396ft 427kts
15-Aug-18 17:32 39.422358 -112.857635 189 36120ft 424kts
15-Aug-18 17:33 39.305479 -112.875002 189 36126ft 424kts
15-Aug-18 17:34 39.188719 -112.892286 189 36125ft 424kts
15-Aug-18 17:35 39.071975 -112.909504 189 36112ft 423kts
15-Aug-18 17:36 38.955652 -112.926606 189 36109ft 422kts
15-Aug-18 17:37 38.839837 -112.943579 189 36162ft 423kts
15-Aug-18 17:38 38.742647 -112.957777 189 36174ft 424kts
15-Aug-18 17:39 38.606472 -112.977602 189 36188ft 423kts
15-Aug-18 17:40 38.489752 -112.994537 189 36176ft 422kts
15-Aug-18 17:41 38.392965 -113.008567 190 36168ft 422kts
15-Aug-18 17:42 38.286135 -113.062743 210 36177ft 415kts
15-Aug-18 17:43 38.184233 -113.130318 210 36181ft 414kts
15-Aug-18 17:44 38.065552 -113.208803 210 36164ft 412kts
15-Aug-18 17:45 37.981587 -113.264169 210 36213ft 412kts
15-Aug-18 17:46 37.880955 -113.330339 210 36209ft 413kts
15-Aug-18 17:47 37.779962 -113.396539 210 36226ft 414kts
15-Aug-18 17:48 37.678272 -113.462989 210 36241ft 414kts
15-Aug-18 17:49 37.576710 -113.529146 210 36240ft 414kts
15-Aug-18 17:50 37.475178 -113.595085 210 36050ft 414kts
15-Aug-18 17:51 37.373384 -113.660983 209 35998ft 413kts
15-Aug-18 17:52 37.271533 -113.726728 209 36004ft 414kts
15-Aug-18 17:53 37.170042 -113.792033 209 36015ft 414kts
15-Aug-18 17:54 37.067937 -113.857538 209 36011ft 414kts
15-Aug-18 17:55 36.965899 -113.922803 209 36006ft 414kts
15-Aug-18 17:56 36.863943 -113.987813 209 36002ft 414kts
15-Aug-18 17:57 36.761781 -114.052760 209 36005ft 414kts
15-Aug-18 17:58 36.659441 -114.117621 209 36001ft 414kts
15-Aug-18 17:59 36.558578 -114.181356 209 36004ft 414kts
15-Aug-18 18:00 36.456112 -114.245912 209 35923ft 414kts
15-Aug-18 18:01 36.353549 -114.310336 209 35923ft 414kts
15-Aug-18 18:02 36.250819 -114.374676 209 35913ft 415kts
15-Aug-18 18:03 36.148196 -114.438759 208 35955ft 416kts
15-Aug-18 18:04 36.045014 -114.502999 208 35971ft 417kts
15-Aug-18 18:05 35.941381 -114.567328 208 35980ft 417kts
15-Aug-18 18:06 35.838450 -114.631034 208 35980ft 417kts
15-Aug-18 18:07 35.735240 -114.694728 207 35977ft 418kts
15-Aug-18 18:08 35.631223 -114.758731 207 35964ft 419kts
15-Aug-18 18:09 35.526984 -114.822682 208 35945ft 420kts
15-Aug-18 18:10 35.422797 -114.886410 208 35864ft 419kts
15-Aug-18 18:11 35.318632 -114.949945 208 35860ft 419kts
15-Aug-18 18:12 35.214273 -115.013412 207 35849ft 420kts
15-Aug-18 18:13 35.110026 -115.076655 207 35845ft 421kts
15-Aug-18 18:14 35.004936 -115.140190 207 35885ft 422kts
15-Aug-18 18:15 34.900017 -115.203473 207 35889ft 422kts
15-Aug-18 18:16 34.806388 -115.259764 207 35890ft 422kts
15-Aug-18 18:17 34.701477 -115.322666 207 35873ft 423kts
15-Aug-18 18:18 34.597139 -115.385053 207 35870ft 423kts
15-Aug-18 18:19 34.501398 -115.442147 207 36021ft 423kts
15-Aug-18 18:20 34.398408 -115.503409 207 36014ft 424kts
15-Aug-18 18:21 34.293597 -115.565573 207 35933ft 424kts
15-Aug-18 18:22 34.189020 -115.624952 202 35013ft 425kts
15-Aug-18 18:23 34.092131 -115.670683 201 34176ft 420kts
15-Aug-18 18:24 33.985624 -115.720883 202 33238ft 412kts
15-Aug-18 18:25 33.881775 -115.770391 203 32252ft 409kts
15-Aug-18 18:26 33.779232 -115.820770 203 30474ft 396kts
15-Aug-18 18:27 33.674333 -115.870191 202 28547ft 416kts
15-Aug-18 18:28 33.568383 -115.919611 202 26556ft 403kts
15-Aug-18 18:29 33.484228 -115.997830 235 24551ft 387kts
15-Aug-18 18:30 33.424090 -116.101407 235 22749ft 371kts
15-Aug-18 18:31 33.365488 -116.202040 235 20887ft 368kts
15-Aug-18 18:32 33.290304 -116.277917 205 18964ft 359kts
15-Aug-18 18:33 33.201788 -116.329593 205 17155ft 352kts
15-Aug-18 18:34 33.114856 -116.380413 205 15385ft 345kts
15-Aug-18 18:35 33.029666 -116.430120 205 13652ft 338kts
15-Aug-18 18:36 32.955023 -116.495312 219 11936ft 332kts
15-Aug-18 18:37 32.886825 -116.564040 219 10493ft 325kts
15-Aug-18 18:38 32.820774 -116.630508 219 9369ft 300kts
15-Aug-18 18:39 32.768687 -116.688896 238 8063ft 295kts
15-Aug-18 18:40 32.729143 -116.772534 238 6622ft 288kts
15-Aug-18 18:41 32.696119 -116.854817 247 5864ft 260kts
15-Aug-18 18:42 32.673953 -116.928691 254 5402ft 232kts
15-Aug-18 18:43 32.687699 -117.001150 283 4558ft 229kts
15-Aug-18 18:44 32.709830 -117.071847 288 3077ft 222kts
15-Aug-18 18:45 32.720108 -117.137081 293 2390ft 211kts
15-Aug-18 18:46 32.743696 -117.215033 286 2890ft 269kts
15-Aug-18 18:47 32.766553 -117.298295 286 2846ft 262kts
15-Aug-18 18:48 32.790082 -117.382276 286 4954ft 273kts
15-Aug-18 18:49 32.839582 -117.441258 5 4999ft 283kts
15-Aug-18 18:50 32.878797 -117.374948 92 5007ft 270kts
15-Aug-18 18:51 32.877249 -117.285752 100 5006ft 268kts
15-Aug-18 18:52 32.849118 -117.209583 121 5007ft 244kts
15-Aug-18 18:53 32.815304 -117.139754 121 5009ft 237kts
15-Aug-18 18:54 32.784000 -117.075123 121 5009ft 225kts
15-Aug-18 18:55 32.765779 -117.010553 108 5029ft 191kts
15-Aug-18 18:56 32.740382 -116.958988 162 5059ft 178kts
15-Aug-18 18:57 32.698762 -116.968098 225 4205ft 157kts
15-Aug-18 18:58 32.690731 -117.012467 281 3173ft 134kts
15-Aug-18 18:59 32.701248 -117.054681 283 2333ft 133kts
15-Aug-18 19:00 32.711363 -117.097167 283 1519ft 133kts
15-Aug-18 19:01 32.721515 -117.139447 284 887ft 132kts
15-Aug-18 19:02 32.731589 -117.181433 285 42ft 129kts
15-Aug-18 19:03 32.735006 -117.198539 245 26ft 10kts
15-Aug-18 19:04 32.734894 -117.198933 258 26ft 2kts
15-Aug-18 19:05 32.735447 -117.201743 286 26ft 20kts
15-Aug-18 19:06 32.733742 -117.205524 173 26ft 16kts
15-Aug-18 19:07 32.732459 -117.205361 174 26ft 0kts

Navigation Log

Ident Type
Flight plan parsing failed, navigation log unavailable